createdAt,value
2017-06-03T00:00:04.804Z,1.24
2017-06-03T00:02:33.733Z,1.92
2017-06-03T00:05:02.659Z,1.10
2017-06-03T00:07:31.629Z,1.12
2017-06-03T00:10:00.640Z,1.02
2017-06-03T00:12:29.724Z,1.10
2017-06-03T00:14:58.648Z,1.00
2017-06-03T00:17:27.569Z,1.18
2017-06-03T00:19:56.560Z,0.96
2017-06-03T00:22:25.592Z,0.94
2017-06-03T00:24:54.587Z,1.26
2017-06-03T00:27:23.592Z,1.04
2017-06-03T00:29:52.556Z,1.56
2017-06-03T00:32:21.581Z,1.40
2017-06-03T00:34:50.553Z,1.26
2017-06-03T00:37:19.557Z,1.30
2017-06-03T00:39:48.485Z,1.52
2017-06-03T00:42:17.451Z,1.80
2017-06-03T00:44:46.375Z,1.16
2017-06-03T00:47:15.360Z,1.62
2017-06-03T00:49:44.398Z,1.46
2017-06-03T00:52:13.320Z,1.68
2017-06-03T00:54:42.243Z,1.58
2017-06-03T00:57:11.220Z,1.06
2017-06-03T00:59:40.200Z,1.28
2017-06-03T01:02:09.212Z,1.20
2017-06-03T01:04:38.136Z,1.22
2017-06-03T01:07:07.112Z,1.54
2017-06-03T01:09:36.049Z,1.32
2017-06-03T01:12:05.025Z,1.40
2017-06-03T01:14:34.076Z,1.30
2017-06-03T01:17:03.000Z,1.28
2017-06-03T01:19:31.967Z,1.18
2017-06-03T01:22:00.936Z,1.40
2017-06-03T01:24:29.899Z,2.22
2017-06-03T01:26:58.820Z,1.74
2017-06-03T01:29:27.884Z,1.10
2017-06-03T01:31:56.869Z,1.32
2017-06-03T01:34:25.800Z,1.60
2017-06-03T01:36:54.734Z,1.16
2017-06-03T01:39:23.701Z,1.22
2017-06-03T01:41:52.667Z,1.52
2017-06-03T01:44:21.649Z,1.34
2017-06-03T01:46:50.575Z,1.56
2017-06-03T01:49:19.496Z,1.58
2017-06-03T01:51:48.504Z,1.88
2017-06-03T01:54:17.459Z,2.02
2017-06-03T01:56:46.427Z,2.06
2017-06-03T01:59:15.360Z,1.58
2017-06-03T02:01:44.287Z,1.90
2017-06-03T02:04:13.277Z,2.16
2017-06-03T02:06:42.267Z,1.88
2017-06-03T02:09:11.203Z,1.32
2017-06-03T02:11:40.188Z,2.14
2017-06-03T02:14:09.122Z,2.24
2017-06-03T02:16:38.148Z,1.84
2017-06-03T02:19:07.112Z,1.68
2017-06-03T02:21:36.122Z,1.82
2017-06-03T02:24:05.202Z,2.00
2017-06-03T02:26:34.156Z,1.66
2017-06-03T02:29:03.105Z,2.02
2017-06-03T02:31:32.092Z,1.64
2017-06-03T02:34:01.077Z,2.22
2017-06-03T02:36:30.006Z,1.44
2017-06-03T02:38:58.933Z,2.18
2017-06-03T02:41:27.908Z,2.64
2017-06-03T02:43:56.837Z,2.20
2017-06-03T02:46:25.840Z,2.06
2017-06-03T02:48:54.819Z,1.86
2017-06-03T02:51:23.832Z,2.22
2017-06-03T02:53:52.761Z,1.64
2017-06-03T02:56:21.816Z,1.52
2017-06-03T02:58:50.760Z,2.58
2017-06-03T03:01:19.687Z,1.82
2017-06-03T03:03:48.655Z,2.04
2017-06-03T03:06:17.584Z,1.96
2017-06-03T03:08:46.511Z,2.10
2017-06-03T03:11:15.569Z,2.32
2017-06-03T03:13:44.528Z,2.24
2017-06-03T03:16:13.452Z,2.10
2017-06-03T03:18:42.422Z,3.96
2017-06-03T03:21:11.420Z,2.34
2017-06-03T03:23:40.343Z,1.96
2017-06-03T03:26:09.278Z,2.04
2017-06-03T03:28:38.245Z,3.08
2017-06-03T03:31:07.181Z,1.80
2017-06-03T03:33:36.167Z,1.70
2017-06-03T03:36:05.093Z,2.48
2017-06-03T03:38:34.064Z,2.46
2017-06-03T03:41:03.060Z,2.04
2017-06-03T03:43:32.034Z,3.36
2017-06-03T03:46:01.003Z,2.22
2017-06-03T03:48:29.927Z,2.24
2017-06-03T03:50:58.853Z,3.04
2017-06-03T03:53:27.825Z,2.88
2017-06-03T03:55:56.756Z,2.66
2017-06-03T03:58:25.708Z,2.14
2017-06-03T04:00:54.689Z,1.98
2017-06-03T04:03:23.608Z,2.96
2017-06-03T04:05:52.532Z,2.32
2017-06-03T04:08:21.572Z,1.80
2017-06-03T04:10:50.572Z,1.70
2017-06-03T04:13:19.564Z,1.84
2017-06-03T04:15:48.556Z,2.82
2017-06-03T04:18:17.547Z,1.74
2017-06-03T04:20:46.467Z,1.84
2017-06-03T04:23:15.432Z,2.48
2017-06-03T04:25:44.391Z,2.12
2017-06-03T04:28:13.364Z,1.96
2017-06-03T04:30:42.304Z,1.80
2017-06-03T04:33:11.228Z,2.18
2017-06-03T04:35:40.217Z,2.14
2017-06-03T04:38:09.140Z,2.32
2017-06-03T04:40:38.085Z,2.36
2017-06-03T04:43:07.115Z,2.18
2017-06-03T04:45:36.042Z,2.20
2017-06-03T04:48:05.010Z,2.30
2017-06-03T04:50:33.988Z,2.50
2017-06-03T04:53:02.956Z,2.48
2017-06-03T04:55:31.984Z,2.70
2017-06-03T04:58:00.907Z,2.08
2017-06-03T05:00:29.899Z,3.62
2017-06-03T05:02:58.856Z,2.42
2017-06-03T05:05:27.848Z,2.32
2017-06-03T05:07:56.844Z,2.98
2017-06-03T05:10:25.835Z,2.34
2017-06-03T05:12:54.828Z,2.98
2017-06-03T05:15:23.816Z,3.34
2017-06-03T05:17:52.745Z,2.60
2017-06-03T05:20:21.668Z,2.16
2017-06-03T05:22:50.636Z,2.92
2017-06-03T05:25:19.564Z,2.64
2017-06-03T05:27:48.539Z,3.18
2017-06-03T05:30:17.472Z,3.50
2017-06-03T05:32:46.396Z,4.00
2017-06-03T05:35:15.369Z,3.30
2017-06-03T05:37:44.287Z,3.24
2017-06-03T05:40:13.216Z,3.56
2017-06-03T05:42:42.231Z,3.02
2017-06-03T05:45:11.224Z,2.94
2017-06-03T05:47:40.301Z,2.00
2017-06-03T05:50:09.224Z,2.28
2017-06-03T05:52:38.144Z,2.14
2017-06-03T05:55:07.118Z,2.04
2017-06-03T05:57:36.060Z,2.92
2017-06-03T06:00:04.976Z,2.50
2017-06-03T06:02:33.948Z,3.06
2017-06-03T06:05:02.872Z,1.96
2017-06-03T06:07:31.792Z,2.50
2017-06-03T06:10:00.748Z,2.76
2017-06-03T06:12:29.672Z,2.62
2017-06-03T06:14:58.696Z,2.40
2017-06-03T06:17:27.630Z,2.58
2017-06-03T06:19:56.613Z,2.66
2017-06-03T06:22:25.535Z,2.20
2017-06-03T06:24:54.472Z,3.20
2017-06-03T06:27:23.448Z,3.46
2017-06-03T06:29:52.386Z,2.70
2017-06-03T06:32:21.348Z,2.58
2017-06-03T06:34:50.348Z,1.88
2017-06-03T06:37:19.279Z,2.52
2017-06-03T06:39:48.244Z,2.90
2017-06-03T06:42:17.319Z,2.20
2017-06-03T06:44:46.251Z,3.08
2017-06-03T06:47:15.175Z,2.14
2017-06-03T06:49:44.140Z,2.58
2017-06-03T06:52:13.087Z,2.18
2017-06-03T06:54:42.211Z,2.42
2017-06-03T06:57:11.184Z,2.56
2017-06-03T06:59:40.149Z,2.18
2017-06-03T07:02:09.111Z,2.52
2017-06-03T07:04:38.132Z,3.02
2017-06-03T07:07:07.129Z,1.90
2017-06-03T07:09:36.065Z,2.22
2017-06-03T07:12:05.008Z,2.38
2017-06-03T07:14:33.971Z,1.70
2017-06-03T07:17:02.953Z,2.38
2017-06-03T07:19:31.953Z,2.18
2017-06-03T07:22:00.924Z,2.60
2017-06-03T07:24:29.850Z,1.82
